Time;durP1;ratioP1;P1;durP2;ratioP2;P2;SDS_P1;SDS_P2;PMS_P1;PMS_P2;Temp;Humidity;BMP_temperature;BMP_pressure;BME280_temperature;BME280_humidity;BME280_pressure;Samples;Min_cycle;Max_cycle;Signal;HPM_P1;HPM_P2
2021/12/29 00:02:11;;;;;;;1.40;0.30;;;14.80;52.30;;;;;;5138125;27;20049;-65
2021/12/29 00:04:36;;;;;;;1.17;0.30;;;14.90;52.40;;;;;;5138400;27;20038;-65
2021/12/29 00:07:02;;;;;;;0.90;0.20;;;14.80;52.40;;;;;;5156666;27;20053;-65
2021/12/29 00:09:29;;;;;;;1.67;0.20;;;14.80;52.40;;;;;;5138314;27;20121;-65
2021/12/29 00:11:55;;;;;;;0.90;0.30;;;14.80;52.40;;;;;;5156532;27;20027;-65
2021/12/29 00:14:20;;;;;;;1.15;0.45;;;14.80;52.40;;;;;;5156748;27;20472;-66
2021/12/29 00:16:46;;;;;;;0.77;0.20;;;14.80;52.40;;;;;;5138222;27;20454;-66
2021/12/29 00:19:12;;;;;;;0.95;0.20;;;14.80;52.40;;;;;;5137826;27;20035;-65
2021/12/29 00:21:37;;;;;;;1.42;0.38;;;14.80;52.40;;;;;;5156479;27;20041;-65
2021/12/29 00:24:05;;;;;;;1.08;0.20;;;14.80;52.50;;;;;;5137780;27;20042;-65
2021/12/29 00:26:32;;;;;;;2.05;0.30;;;14.80;53.20;;;;;;5137217;27;20091;-66
2021/12/29 00:29:01;;;;;;;1.40;0.25;;;14.80;53.20;;;;;;5137883;27;20042;-65
2021/12/29 00:31:30;;;;;;;0.75;0.30;;;14.80;52.50;;;;;;5156354;27;20130;-66
2021/12/29 00:33:56;;;;;;;0.77;0.30;;;14.80;52.50;;;;;;5156090;27;20042;-65
2021/12/29 00:36:22;;;;;;;1.30;0.30;;;14.70;52.50;;;;;;5137497;27;20041;-66
2021/12/29 00:38:48;;;;;;;1.08;0.32;;;14.70;52.50;;;;;;5137466;27;20049;-65
2021/12/29 00:41:17;;;;;;;2.20;0.30;;;14.70;52.50;;;;;;5137401;27;20034;-66
2021/12/29 00:43:44;;;;;;;0.90;0.20;;;14.70;52.50;;;;;;5137300;27;20046;-65
2021/12/29 00:46:12;;;;;;;1.02;0.28;;;14.70;52.50;;;;;;5155834;27;20043;-65
2021/12/29 00:48:42;;;;;;;1.40;0.20;;;14.70;52.50;;;;;;5137584;27;20031;-65
2021/12/29 00:51:09;;;;;;;1.25;0.30;;;14.70;52.50;;;;;;5155912;27;20038;-65
2021/12/29 00:53:35;;;;;;;1.48;0.40;;;14.70;52.60;;;;;;5155701;27;20424;-65
2021/12/29 00:56:03;;;;;;;1.20;0.35;;;14.70;52.60;;;;;;5136904;27;20121;-65
2021/12/29 00:58:29;;;;;;;1.23;0.30;;;14.70;52.60;;;;;;5155488;27;20090;-66
2021/12/29 01:00:59;;;;;;;0.95;0.30;;;14.70;52.60;;;;;;5137214;27;20030;-66
2021/12/29 01:03:28;;;;;;;0.73;0.28;;;14.60;52.60;;;;;;5137106;27;20235;-66
2021/12/29 01:05:57;;;;;;;0.80;0.30;;;14.70;52.70;;;;;;5155430;27;20035;-65
2021/12/29 01:08:22;;;;;;;1.27;0.52;;;14.70;52.80;;;;;;5155443;27;20111;-66
2021/12/29 01:10:49;;;;;;;1.60;0.40;;;14.70;52.70;;;;;;5137061;27;20092;-66
2021/12/29 01:13:19;;;;;;;1.20;0.30;;;14.70;52.70;;;;;;5155178;27;20035;-65
2021/12/29 01:18:32;;;;;;;0.80;0.45;;;14.70;52.80;;;;;;5136756;27;20106;-65
2021/12/29 01:20:58;;;;;;;0.85;0.30;;;14.70;52.80;;;;;;5155167;27;20157;-65
2021/12/29 01:23:24;;;;;;;0.77;0.38;;;14.70;52.80;;;;;;5155119;27;20037;-65
2021/12/29 01:25:50;;;;;;;1.02;0.30;;;14.70;52.80;;;;;;5136407;27;20038;-65
2021/12/29 01:28:16;;;;;;;1.25;0.30;;;14.70;52.80;;;;;;5136406;27;20095;-65
2021/12/29 01:30:44;;;;;;;0.80;0.20;;;14.70;52.90;;;;;;5155127;27;20034;-65
2021/12/29 01:33:10;;;;;;;0.88;0.30;;;14.70;52.90;;;;;;5154712;27;20042;-65
2021/12/29 01:35:38;;;;;;;0.80;0.50;;;14.70;52.90;;;;;;5136239;27;20129;-65
2021/12/29 01:38:05;;;;;;;1.30;0.40;;;14.70;52.90;;;;;;5154051;27;20038;-65
2021/12/29 01:40:31;;;;;;;1.40;0.40;;;14.60;52.90;;;;;;5136437;27;20177;-65
2021/12/29 01:42:58;;;;;;;1.13;0.30;;;14.60;52.80;;;;;;5136333;27;20043;-66
2021/12/29 01:45:24;;;;;;;1.13;0.20;;;14.70;52.90;;;;;;5136228;27;20046;-65
2021/12/29 01:47:50;;;;;;;0.80;0.30;;;14.60;52.90;;;;;;5136022;27;20039;-65
2021/12/29 01:50:16;;;;;;;1.15;0.30;;;14.60;52.90;;;;;;5136344;27;20046;-65
2021/12/29 01:52:50;;;;;;;1.42;0.40;;;14.70;53.00;;;;;;5136192;27;20110;-66
2021/12/29 01:55:16;;;;;;;0.88;0.20;;;14.60;52.90;;;;;;5135673;27;20061;-65
2021/12/29 01:57:43;;;;;;;0.95;0.30;;;14.60;52.90;;;;;;5136035;27;20432;-65
2021/12/29 02:00:14;;;;;;;0.80;0.32;;;14.60;53.00;;;;;;5154441;27;20035;-65
2021/12/29 02:02:41;;;;;;;0.90;0.28;;;14.60;53.00;;;;;;5154407;27;20034;-65
2021/12/29 02:05:08;;;;;;;0.90;0.20;;;14.60;53.00;;;;;;5135734;27;20478;-66
2021/12/29 02:07:40;;;;;;;0.90;0.25;;;14.60;53.00;;;;;;5154225;27;20109;-65
2021/12/29 02:10:08;;;;;;;0.95;0.35;;;14.60;53.00;;;;;;5135717;27;20051;-65
2021/12/29 02:12:38;;;;;;;0.77;0.30;;;14.70;53.20;;;;;;5135859;27;20042;-65
2021/12/29 02:15:06;;;;;;;1.08;0.20;;;14.70;53.20;;;;;;5154056;27;20042;-66
2021/12/29 02:17:32;;;;;;;0.85;0.20;;;14.80;53.00;;;;;;5154255;27;20358;-65
2021/12/29 02:19:59;;;;;;;0.90;0.30;;;15.00;52.70;;;;;;5135681;27;20055;-65
2021/12/29 02:22:44;;;;;;;0.60;0.13;;;15.10;52.30;;;;;;5135674;27;20047;-66
2021/12/29 02:28:00;;;;;;;0.50;0.10;;;15.80;51.10;;;;;;5089484;28;20965;-65
2021/12/29 02:30:26;;;;;;;0.50;0.10;;;16.60;49.50;;;;;;5088416;28;20036;-66
2021/12/29 02:32:55;;;;;;;0.40;0.10;;;17.40;47.80;;;;;;5088370;28;20102;-65
2021/12/29 02:35:22;;;;;;;0.50;0.30;;;18.20;46.30;;;;;;5087950;28;20044;-65
2021/12/29 02:37:48;;;;;;;0.85;0.10;;;18.70;45.30;;;;;;5089369;28;20513;-66
2021/12/29 02:40:14;;;;;;;0.70;0.40;;;19.00;44.50;;;;;;5089329;28;20377;-66
2021/12/29 02:42:42;;;;;;;0.45;0.15;;;19.20;44.40;;;;;;5089259;28;20111;-66
2021/12/29 02:45:13;;;;;;;0.45;0.10;;;19.20;44.30;;;;;;5088122;28;20105;-66
2021/12/29 02:47:38;;;;;;;0.55;0.20;;;19.20;44.20;;;;;;5088965;28;20044;-65
2021/12/29 02:50:05;;;;;;;0.30;0.20;;;19.30;44.30;;;;;;5087677;28;20051;-65
2021/12/29 02:52:30;;;;;;;0.35;0.10;;;19.30;44.10;;;;;;5089206;28;20046;-65
2021/12/29 02:54:59;;;;;;;1.08;0.10;;;19.40;44.70;;;;;;5087571;28;20395;-65
2021/12/29 02:57:25;;;;;;;0.50;0.10;;;19.40;43.80;;;;;;5087597;28;20123;-65
2021/12/29 02:59:50;;;;;;;0.57;0.43;;;19.40;43.80;;;;;;5087525;28;20181;-65
2021/12/29 03:02:16;;;;;;;0.65;0.10;;;19.40;43.70;;;;;;5088777;28;20040;-65
2021/12/29 03:04:42;;;;;;;0.38;0.20;;;19.40;43.60;;;;;;5087736;28;20029;-65
2021/12/29 03:07:07;;;;;;;0.20;0.03;;;19.40;43.70;;;;;;5087384;28;20399;-65
2021/12/29 03:09:34;;;;;;;0.30;0.10;;;19.30;43.70;;;;;;5087308;28;20090;-65
2021/12/29 03:11:59;;;;;;;0.82;0.25;;;19.30;43.70;;;;;;5088773;28;20067;-67
2021/12/29 03:14:25;;;;;;;0.20;0.10;;;19.20;43.80;;;;;;5088501;28;20585;-66
2021/12/29 03:16:54;;;;;;;0.28;0.10;;;19.10;43.90;;;;;;5088486;28;20089;-65
2021/12/29 03:19:20;;;;;;;0.25;0.10;;;19.00;44.00;;;;;;5087250;28;20149;-65
2021/12/29 03:21:46;;;;;;;0.30;0.10;;;18.90;44.20;;;;;;5087342;28;20047;-66
2021/12/29 03:24:18;;;;;;;0.55;0.10;;;18.80;44.30;;;;;;5087192;28;20400;-65
2021/12/29 03:26:44;;;;;;;0.60;0.20;;;18.70;44.60;;;;;;5087905;28;20064;-65
2021/12/29 03:29:10;;;;;;;0.52;0.10;;;18.60;44.80;;;;;;5087276;28;20381;-65
2021/12/29 03:31:39;;;;;;;0.30;0.10;;;18.50;45.00;;;;;;5087216;28;20059;-65
2021/12/29 03:34:05;;;;;;;0.52;0.10;;;18.40;45.20;;;;;;5088260;28;20095;-65
2021/12/29 03:36:31;;;;;;;0.47;0.10;;;18.20;45.30;;;;;;5086899;28;20048;-66
2021/12/29 03:38:56;;;;;;;0.47;0.13;;;18.10;45.50;;;;;;5075608;28;20131;-65
2021/12/29 03:41:24;;;;;;;0.32;0.10;;;18.00;45.70;;;;;;5073357;28;20076;-65
2021/12/29 03:43:50;;;;;;;0.40;0.10;;;18.00;46.00;;;;;;5073569;28;20117;-66
2021/12/29 03:46:16;;;;;;;0.45;0.10;;;17.80;46.20;;;;;;5073125;28;20128;-65
2021/12/29 03:48:46;;;;;;;0.98;0.10;;;17.70;46.40;;;;;;5073186;28;20041;-65
2021/12/29 03:51:12;;;;;;;0.32;0.10;;;17.60;46.60;;;;;;5073090;28;20054;-65
2021/12/29 03:53:38;;;;;;;0.57;0.10;;;17.60;46.90;;;;;;5074518;28;20041;-67
2021/12/29 03:56:05;;;;;;;0.32;0.10;;;17.50;47.10;;;;;;5073304;28;20036;-65
2021/12/29 03:58:31;;;;;;;0.60;0.10;;;17.30;48.00;;;;;;5073252;28;20067;-65
2021/12/29 04:01:03;;;;;;;0.45;0.10;;;17.30;47.40;;;;;;5073036;28;20051;-65
2021/12/29 04:03:29;;;;;;;0.22;0.10;;;17.20;47.70;;;;;;5073230;28;20053;-65
2021/12/29 04:05:54;;;;;;;0.70;0.10;;;17.10;47.90;;;;;;5074312;28;20384;-66
2021/12/29 04:08:20;;;;;;;0.55;0.13;;;17.00;48.10;;;;;;5074206;28;20037;-65
2021/12/29 04:10:46;;;;;;;0.55;0.10;;;16.90;48.20;;;;;;5072864;28;20527;-65
2021/12/29 04:13:11;;;;;;;0.65;0.10;;;16.80;48.50;;;;;;5073916;28;20032;-65
2021/12/29 04:15:38;;;;;;;1.23;0.10;;;16.80;48.70;;;;;;5073944;28;20111;-66
2021/12/29 04:18:15;;;;;;;0.38;0.10;;;16.70;48.80;;;;;;5073773;28;20381;-66
2021/12/29 04:20:59;;;;;;;1.95;0.10;;;16.60;49.00;;;;;;5072738;28;20345;-65
2021/12/29 04:23:27;;;;;;;0.85;0.20;;;16.60;49.20;;;;;;5072526;28;20032;-65
2021/12/29 04:25:55;;;;;;;0.80;0.20;;;16.50;49.40;;;;;;5072217;28;20056;-65
2021/12/29 04:28:23;;;;;;;0.50;0.20;;;16.50;49.50;;;;;;5072656;28;20056;-65
2021/12/29 04:30:51;;;;;;;0.50;0.17;;;16.40;49.60;;;;;;5072740;28;20040;-65
2021/12/29 04:33:17;;;;;;;0.45;0.10;;;16.40;49.80;;;;;;5073620;28;20431;-65
2021/12/29 04:35:45;;;;;;;0.40;0.10;;;16.30;49.90;;;;;;5074005;28;20380;-65
2021/12/29 04:38:13;;;;;;;1.25;0.10;;;16.30;50.00;;;;;;5072208;28;20487;-65
2021/12/29 04:40:39;;;;;;;0.63;0.10;;;16.10;50.10;;;;;;5072518;28;20040;-65
2021/12/29 04:43:05;;;;;;;1.35;0.22;;;16.20;50.20;;;;;;5073313;28;20110;-65
2021/12/29 04:45:30;;;;;;;1.10;0.13;;;16.10;50.40;;;;;;5072382;28;20072;-65
2021/12/29 04:47:56;;;;;;;1.15;0.20;;;16.10;50.50;;;;;;5072074;28;20488;-65
2021/12/29 04:53:10;;;;;;;0.20;0.10;;;16.00;50.70;;;;;;5130262;27;20531;-66
2021/12/29 04:55:36;;;;;;;0.50;0.10;;;16.00;50.90;;;;;;5129229;28;20100;-65
2021/12/29 04:58:03;;;;;;;1.17;0.17;;;15.90;51.00;;;;;;5129146;27;20066;-66
2021/12/29 05:00:31;;;;;;;0.93;0.20;;;16.00;51.10;;;;;;5129241;28;20104;-65
2021/12/29 05:02:57;;;;;;;1.33;0.30;;;15.90;51.20;;;;;;5129176;28;20031;-66
2021/12/29 05:08:31;;;;;;;0.73;0.20;;;15.80;51.40;;;;;;5152205;27;1179595;-66
2021/12/29 05:11:00;;;;;;;1.02;0.20;;;15.80;51.50;;;;;;5153540;27;20374;-65
2021/12/29 05:13:28;;;;;;;1.20;0.20;;;15.70;51.60;;;;;;5153084;27;20078;-65
2021/12/29 05:15:55;;;;;;;0.90;0.47;;;15.70;51.70;;;;;;5115231;27;20053;-66
2021/12/29 05:18:22;;;;;;;1.02;0.20;;;15.70;51.80;;;;;;5132500;27;20107;-67
2021/12/29 05:20:48;;;;;;;1.73;0.30;;;15.60;51.90;;;;;;5150665;27;20081;-66
2021/12/29 05:23:14;;;;;;;1.88;0.45;;;15.50;51.90;;;;;;5132502;27;20071;-65
2021/12/29 05:25:40;;;;;;;0.82;0.20;;;15.50;52.10;;;;;;5132131;27;20042;-65
2021/12/29 05:28:06;;;;;;;1.05;0.20;;;15.50;52.10;;;;;;5132028;27;20039;-65
2021/12/29 05:30:33;;;;;;;0.95;0.20;;;15.50;52.30;;;;;;5150630;27;20038;-65
2021/12/29 05:32:58;;;;;;;1.38;0.20;;;15.40;52.30;;;;;;5150513;27;20035;-65
2021/12/29 05:35:30;;;;;;;1.58;0.22;;;15.40;52.30;;;;;;5131902;27;20390;-66
2021/12/29 05:37:56;;;;;;;0.85;0.35;;;15.40;52.40;;;;;;5150323;27;20049;-66
2021/12/29 05:40:23;;;;;;;0.98;0.20;;;15.40;52.40;;;;;;5132049;27;20046;-66
2021/12/29 05:42:49;;;;;;;1.00;0.40;;;15.40;52.50;;;;;;5150347;27;20482;-65
2021/12/29 05:45:18;;;;;;;1.02;0.32;;;15.40;52.50;;;;;;5131878;27;20042;-65
2021/12/29 05:47:44;;;;;;;1.45;0.50;;;15.40;52.60;;;;;;5131591;27;20078;-66
2021/12/29 05:50:13;;;;;;;1.67;0.30;;;15.40;52.60;;;;;;5150094;27;20043;-65
2021/12/29 05:52:39;;;;;;;0.98;0.20;;;15.40;52.60;;;;;;5150153;27;20039;-65
2021/12/29 05:55:06;;;;;;;1.35;0.30;;;15.30;52.50;;;;;;5131570;27;20035;-65
2021/12/29 05:57:32;;;;;;;1.50;0.60;;;15.40;52.60;;;;;;5131769;27;20172;-65
2021/12/29 06:00:02;;;;;;;1.88;0.32;;;15.40;52.60;;;;;;5149923;27;20490;-65
2021/12/29 06:02:31;;;;;;;0.95;0.30;;;15.40;52.60;;;;;;5149924;27;20042;-65
2021/12/29 06:04:57;;;;;;;1.88;0.30;;;15.40;52.60;;;;;;5131626;27;20038;-65
2021/12/29 06:07:22;;;;;;;0.82;0.20;;;15.30;52.60;;;;;;5149196;27;20441;-65
2021/12/29 06:09:48;;;;;;;0.75;0.20;;;15.30;52.60;;;;;;5149954;27;20046;-65
2021/12/29 06:12:13;;;;;;;0.93;0.30;;;15.30;52.60;;;;;;5149714;27;20123;-65
2021/12/29 06:14:39;;;;;;;1.23;0.20;;;15.30;52.70;;;;;;5141597;27;20507;-65
2021/12/29 06:17:05;;;;;;;1.00;0.40;;;15.30;52.70;;;;;;5152142;27;20050;-65
2021/12/29 06:19:32;;;;;;;0.45;0.30;;;15.30;52.80;;;;;;5138618;27;20047;-66
2021/12/29 06:22:08;;;;;;;0.77;0.20;;;15.30;52.80;;;;;;5137882;27;20481;-66
2021/12/29 06:24:40;;;;;;;0.63;0.10;;;15.30;52.80;;;;;;5156508;27;20087;-66
2021/12/29 06:27:06;;;;;;;2.35;0.35;;;15.30;52.90;;;;;;5137915;27;20042;-65
2021/12/29 06:29:32;;;;;;;1.48;0.30;;;15.20;52.80;;;;;;5156309;27;20035;-65
2021/12/29 06:31:58;;;;;;;1.95;0.25;;;15.20;52.90;;;;;;5156219;27;20057;-65
2021/12/29 06:34:23;;;;;;;2.20;0.30;;;15.20;52.90;;;;;;5137521;27;20043;-65
2021/12/29 06:36:49;;;;;;;2.67;0.28;;;15.20;52.90;;;;;;5137949;27;20117;-66
2021/12/29 06:39:15;;;;;;;1.52;0.40;;;15.20;53.00;;;;;;5156403;27;20132;-66
2021/12/29 06:41:44;;;;;;;0.85;0.20;;;15.20;52.90;;;;;;5137830;27;20038;-66
2021/12/29 06:44:10;;;;;;;1.52;0.28;;;15.20;53.00;;;;;;5156528;27;20044;-65
2021/12/29 06:46:36;;;;;;;1.55;0.40;;;15.20;53.00;;;;;;5137314;27;20041;-65
2021/12/29 06:49:05;;;;;;;1.30;0.30;;;15.10;53.10;;;;;;5137588;27;20103;-66
2021/12/29 06:51:30;;;;;;;1.52;0.30;;;15.10;53.10;;;;;;5137644;27;20046;-65
2021/12/29 06:53:59;;;;;;;1.77;0.20;;;15.10;53.10;;;;;;5137364;27;20442;-66
2021/12/29 06:56:24;;;;;;;1.55;0.45;;;15.10;53.20;;;;;;5155841;27;20042;-65
2021/12/29 06:58:50;;;;;;;1.70;0.30;;;15.10;53.20;;;;;;5155873;27;20206;-66
2021/12/29 07:01:16;;;;;;;1.48;0.40;;;15.00;53.20;;;;;;5155776;27;20035;-65
2021/12/29 07:03:43;;;;;;;1.35;0.40;;;15.00;53.20;;;;;;5137353;27;20042;-65
2021/12/29 07:06:17;;;;;;;2.90;0.50;;;15.10;53.30;;;;;;5137146;27;20042;-65
2021/12/29 07:08:43;;;;;;;1.55;0.22;;;15.00;53.30;;;;;;5136630;27;20269;-66
2021/12/29 07:11:08;;;;;;;2.17;0.40;;;15.00;53.30;;;;;;5137074;27;20326;-66
2021/12/29 07:13:34;;;;;;;1.73;0.40;;;15.10;53.40;;;;;;5155393;27;20113;-65
2021/12/29 07:16:00;;;;;;;1.90;0.43;;;15.00;53.40;;;;;;5136888;27;20390;-66
2021/12/29 07:18:25;;;;;;;2.78;0.40;;;15.00;53.40;;;;;;5136704;27;20095;-66
2021/12/29 07:20:51;;;;;;;1.27;0.30;;;15.00;53.50;;;;;;5155275;27;20103;-66
2021/12/29 07:23:17;;;;;;;2.35;0.50;;;15.00;53.50;;;;;;5136761;27;20122;-65
2021/12/29 07:25:42;;;;;;;1.65;0.50;;;15.00;53.50;;;;;;5136711;27;20043;-65
2021/12/29 07:28:11;;;;;;;1.60;0.40;;;15.00;53.50;;;;;;5155234;27;20038;-65
2021/12/29 07:30:39;;;;;;;1.95;0.60;;;15.00;53.60;;;;;;5154154;27;20114;-65
2021/12/29 07:33:05;;;;;;;1.98;0.43;;;15.10;53.70;;;;;;5154997;27;20038;-65
2021/12/29 07:35:31;;;;;;;1.73;0.50;;;15.00;53.60;;;;;;5155049;27;20506;-65
2021/12/29 07:37:56;;;;;;;1.13;0.35;;;15.00;53.60;;;;;;5155073;27;20474;-66
2021/12/29 07:40:22;;;;;;;1.27;0.30;;;15.00;53.60;;;;;;5136319;27;20091;-65
2021/12/29 07:42:48;;;;;;;1.75;0.50;;;15.00;53.70;;;;;;5136464;27;20125;-65
2021/12/29 07:45:14;;;;;;;3.35;0.40;;;15.00;53.70;;;;;;5136543;27;20111;-66
2021/12/29 07:47:46;;;;;;;1.65;0.70;;;14.90;53.70;;;;;;5154810;27;20553;-66
2021/12/29 07:50:13;;;;;;;1.27;0.30;;;14.90;53.70;;;;;;5154563;27;20027;-65
2021/12/29 07:52:39;;;;;;;1.67;0.77;;;14.90;53.70;;;;;;5136254;27;20172;-65
2021/12/29 07:55:05;;;;;;;1.80;0.50;;;14.90;53.80;;;;;;5136433;27;20121;-66
2021/12/29 07:57:34;;;;;;;1.40;0.40;;;14.90;53.90;;;;;;5136139;27;20703;-65
2021/12/29 07:59:59;;;;;;;1.55;0.30;;;14.90;53.90;;;;;;5136315;27;20163;-65
2021/12/29 08:02:27;;;;;;;1.77;0.57;;;14.90;53.90;;;;;;5136027;27;20478;-66
2021/12/29 08:04:54;;;;;;;1.25;0.50;;;14.90;53.90;;;;;;5135830;27;20051;-65
2021/12/29 08:07:21;;;;;;;1.02;0.50;;;14.90;53.90;;;;;;5135556;27;20058;-65
2021/12/29 08:09:47;;;;;;;4.43;0.60;;;14.90;53.90;;;;;;5154327;27;20034;-65
2021/12/29 08:12:13;;;;;;;2.08;0.38;;;14.90;53.90;;;;;;5154350;27;20066;-65
2021/12/29 08:14:38;;;;;;;1.95;0.30;;;14.90;53.90;;;;;;5154107;27;20496;-65
2021/12/29 08:17:07;;;;;;;2.22;0.40;;;14.90;54.00;;;;;;5154254;27;20042;-65
2021/12/29 08:19:33;;;;;;;1.02;0.40;;;14.90;54.00;;;;;;5135419;27;20130;-65
2021/12/29 08:21:59;;;;;;;2.28;0.40;;;14.90;54.00;;;;;;5135904;27;20125;-65
2021/12/29 08:24:24;;;;;;;3.35;0.40;;;14.90;54.10;;;;;;5135595;27;20046;-66
2021/12/29 08:26:50;;;;;;;2.28;0.32;;;14.80;54.00;;;;;;5153962;27;20039;-65
2021/12/29 08:29:15;;;;;;;1.05;0.30;;;14.90;54.20;;;;;;5154166;27;20406;-65
2021/12/29 08:31:41;;;;;;;1.60;0.40;;;14.90;54.20;;;;;;5153971;27;20070;-65
2021/12/29 08:34:07;;;;;;;2.47;0.50;;;14.80;54.10;;;;;;5153966;27;20041;-65
2021/12/29 08:36:32;;;;;;;1.20;0.45;;;14.80;54.20;;;;;;5135351;27;20049;-66
2021/12/29 08:38:58;;;;;;;1.00;0.52;;;14.80;54.20;;;;;;5154096;27;20046;-66
2021/12/29 08:41:23;;;;;;;2.10;0.50;;;14.80;54.30;;;;;;5135323;27;20043;-65
2021/12/29 08:43:49;;;;;;;1.20;0.40;;;14.80;54.30;;;;;;5135503;27;20054;-65
2021/12/29 08:46:17;;;;;;;1.52;0.30;;;14.80;54.30;;;;;;5153768;27;20039;-65
2021/12/29 08:48:42;;;;;;;1.40;0.47;;;14.80;54.30;;;;;;5135188;27;20086;-65
2021/12/29 08:51:08;;;;;;;1.35;0.40;;;14.80;54.40;;;;;;5135018;27;20042;-66
2021/12/29 08:53:35;;;;;;;2.53;0.50;;;14.80;54.40;;;;;;5135421;27;20054;-65
2021/12/29 08:56:05;;;;;;;2.72;0.50;;;14.80;54.40;;;;;;5135280;27;20079;-66
2021/12/29 08:58:31;;;;;;;1.50;0.50;;;14.90;54.60;;;;;;5153647;27;20043;-65
2021/12/29 09:00:59;;;;;;;1.88;0.45;;;14.80;54.40;;;;;;5135248;27;20125;-65
2021/12/29 09:03:25;;;;;;;2.60;0.55;;;14.80;54.40;;;;;;5135146;27;20114;-65
2021/12/29 09:05:51;;;;;;;1.27;0.47;;;14.80;54.40;;;;;;5135258;27;20118;-66
2021/12/29 09:08:17;;;;;;;1.08;0.40;;;14.80;54.50;;;;;;5153473;27;20099;-65
2021/12/29 09:10:44;;;;;;;0.77;0.30;;;14.80;54.50;;;;;;5153635;27;20105;-65
2021/12/29 09:13:11;;;;;;;2.25;0.40;;;14.80;54.60;;;;;;5153475;27;20053;-65
2021/12/29 09:15:37;;;;;;;1.40;0.45;;;14.80;54.60;;;;;;5153477;27;20030;-65
2021/12/29 09:18:03;;;;;;;1.02;0.35;;;14.80;54.60;;;;;;5153428;27;20513;-65
2021/12/29 09:20:33;;;;;;;2.03;0.50;;;14.80;54.60;;;;;;5135103;27;20465;-65
2021/12/29 09:23:05;;;;;;;2.47;0.55;;;14.80;54.70;;;;;;5135090;27;20043;-65
2021/12/29 09:25:31;;;;;;;2.20;0.55;;;14.80;54.70;;;;;;5135080;27;20054;-65
2021/12/29 09:28:00;;;;;;;1.90;0.50;;;14.80;54.70;;;;;;5153230;27;20042;-66
2021/12/29 09:30:30;;;;;;;1.77;0.50;;;14.80;54.80;;;;;;5153394;27;20515;-65
2021/12/29 09:32:55;;;;;;;1.92;0.50;;;14.70;54.90;;;;;;5153214;27;20099;-65
2021/12/29 09:35:22;;;;;;;2.72;0.50;;;14.70;54.80;;;;;;5134687;27;20486;-65
2021/12/29 09:37:51;;;;;;;2.13;0.50;;;14.70;54.90;;;;;;5153299;27;20042;-65
2021/12/29 09:40:19;;;;;;;1.17;0.50;;;14.80;55.00;;;;;;5153246;27;20113;-65
2021/12/29 09:42:46;;;;;;;1.88;0.93;;;14.70;54.90;;;;;;5153167;27;20039;-65
2021/12/29 09:45:15;;;;;;;2.22;0.57;;;14.70;54.90;;;;;;5134904;27;20046;-66
2021/12/29 09:47:40;;;;;;;1.27;0.50;;;14.80;55.20;;;;;;5134554;27;20485;-65
2021/12/29 09:50:11;;;;;;;1.50;0.50;;;14.80;55.10;;;;;;5134695;27;20046;-65
2021/12/29 09:52:38;;;;;;;2.42;0.30;;;14.90;55.00;;;;;;5153130;27;20038;-65
2021/12/29 09:55:07;;;;;;;2.30;0.45;;;15.00;54.70;;;;;;5157038;27;20027;-65
2021/12/29 09:57:34;;;;;;;1.13;0.43;;;15.20;54.30;;;;;;5138501;27;20070;-65
2021/12/29 10:00:05;;;;;;;1.23;0.30;;;15.60;53.70;;;;;;5157025;27;20082;-66
2021/12/29 10:02:31;;;;;;;;;;;16.10;52.60;;;;;;5138776;27;20127;-65
2021/12/29 10:04:58;;;;;;;1.55;0.40;;;16.90;51.20;;;;;;5138677;27;20025;-65
2021/12/29 10:07:26;;;;;;;1.50;0.43;;;17.90;48.60;;;;;;5138240;27;20497;-65
2021/12/29 10:09:53;;;;;;;0.68;0.30;;;18.70;46.90;;;;;;5156699;27;20027;-65
2021/12/29 10:12:21;;;;;;;2.28;0.30;;;19.40;45.40;;;;;;5138110;27;20477;-65
2021/12/29 10:17:30;;;;;;;1.90;0.40;;;19.90;44.40;;;;;;5150914;27;20130;-65
2021/12/29 10:22:55;;;;;;;1.35;0.30;;;20.10;44.20;;;;;;5089495;28;20409;-65
2021/12/29 10:25:24;;;;;;;0.47;0.20;;;20.10;44.10;;;;;;5088367;28;20067;-65
2021/12/29 10:27:51;;;;;;;0.65;0.20;;;20.20;43.80;;;;;;5088319;28;20048;-65
2021/12/29 10:33:13;;;;;;;0.82;0.20;;;20.30;43.60;;;;;;5089428;27;20405;-66
2021/12/29 10:35:38;;;;;;;1.65;0.20;;;20.30;43.30;;;;;;5088118;28;20068;-65
2021/12/29 10:40:51;;;;;;;1.77;0.40;;;20.30;43.20;;;;;;5130242;27;20591;-65
2021/12/29 10:43:17;;;;;;;1.10;0.20;;;20.30;43.20;;;;;;5129013;28;20105;-65
2021/12/29 10:45:46;;;;;;;3.20;0.30;;;20.20;43.20;;;;;;5129139;28;20039;-65
2021/12/29 10:48:23;;;;;;;1.23;0.20;;;20.20;43.30;;;;;;5129229;28;20073;-65
2021/12/29 10:51:07;;;;;;;1.50;0.30;;;20.00;43.40;;;;;;5129009;28;20069;-65
2021/12/29 10:53:36;;;;;;;1.88;0.30;;;19.90;43.60;;;;;;5129110;28;20092;-65
2021/12/29 10:56:03;;;;;;;2.25;0.20;;;19.80;43.80;;;;;;5130013;27;20046;-65
2021/12/29 10:58:32;;;;;;;2.50;0.40;;;19.70;44.70;;;;;;5129133;28;20122;-65
2021/12/29 11:01:15;;;;;;;4.43;1.20;;;19.50;44.10;;;;;;5129877;27;20035;-66
2021/12/29 11:06:30;;;;;;;1.20;0.30;;;19.30;44.50;;;;;;5089319;28;20105;-65
2021/12/29 11:08:58;;;;;;;1.65;0.30;;;19.20;44.70;;;;;;5051272;28;20576;-65
2021/12/29 11:11:35;;;;;;;1.08;0.35;;;19.10;44.90;;;;;;5051143;28;20045;-65
2021/12/29 11:17:07;;;;;;;1.10;0.20;;;18.90;45.30;;;;;;5130214;27;20917;-65
2021/12/29 11:19:38;;;;;;;1.75;0.28;;;18.70;46.30;;;;;;5129176;27;20047;-65
2021/12/29 11:22:08;;;;;;;1.75;0.20;;;18.70;45.80;;;;;;5128787;28;20050;-65
2021/12/29 11:24:34;;;;;;;0.90;0.10;;;18.50;46.00;;;;;;5128835;28;20027;-67
2021/12/29 11:27:07;;;;;;;1.63;0.50;;;18.30;46.30;;;;;;5127105;28;20421;-66
2021/12/29 11:29:32;;;;;;;2.28;0.50;;;18.20;46.90;;;;;;5126246;28;20043;-66
2021/12/29 11:32:01;;;;;;;2.53;0.20;;;18.10;47.60;;;;;;5127413;28;20046;-65
2021/12/29 11:34:28;;;;;;;4.13;0.40;;;18.30;47.80;;;;;;5126518;28;20050;-70
2021/12/29 11:39:44;;;;;;;5.97;0.45;;;18.40;47.90;;;;;;5128625;27;20181;-71
2021/12/29 11:42:10;;;;;;;3.97;0.98;;;18.60;47.80;;;;;;5135379;27;20119;-65
2021/12/29 11:44:40;;;;;;;5.28;0.30;;;18.90;47.50;;;;;;5144843;27;20043;-72
2021/12/29 11:47:07;;;;;;;6.75;0.40;;;19.10;47.30;;;;;;5127947;27;20047;-72
2021/12/29 11:49:36;;;;;;;3.78;0.40;;;19.40;46.90;;;;;;5128926;27;20036;-66
2021/12/29 11:57:40;;;;;;;5.50;0.40;;;20.80;44.50;;;;;;5088494;28;20429;-65
2021/12/29 12:00:13;;;;;;;5.10;0.40;;;21.00;43.90;;;;;;5089362;28;20044;-66
2021/12/29 12:02:39;;;;;;;8.23;0.70;;;21.30;43.40;;;;;;5088351;28;20032;-68
2021/12/29 12:07:45;;;;;;;6.57;0.50;;;21.40;43.40;;;;;;5152788;27;1158264;-72
2021/12/29 12:10:26;;;;;;;10.60;0.50;;;22.00;42.50;;;;;;5153176;27;20366;-71
2021/12/29 12:12:55;;;;;;;5.13;0.45;;;22.40;41.90;;;;;;5153276;27;20482;-76
2021/12/29 12:15:34;;;;;;;5.80;0.40;;;22.50;41.60;;;;;;5152127;27;20034;-69
2021/12/29 12:18:06;;;;;;;3.47;0.68;;;22.50;41.60;;;;;;5152482;27;20103;-68
2021/12/29 12:20:45;;;;;;;3.50;0.88;;;22.60;41.30;;;;;;5152691;27;20049;-70
2021/12/29 12:23:23;;;;;;;5.68;0.82;;;22.60;41.50;;;;;;5173424;27;20042;-67
2021/12/29 12:25:49;;;;;;;2.13;0.22;;;22.70;41.20;;;;;;5161470;27;20044;-72
2021/12/29 12:28:17;;;;;;;3.72;0.40;;;22.80;40.90;;;;;;5155925;27;20125;-74
2021/12/29 12:30:47;;;;;;;4.93;0.82;;;22.70;41.20;;;;;;5171255;27;20045;-71
2021/12/29 12:33:17;;;;;;;3.53;0.50;;;22.60;41.40;;;;;;5152612;27;20042;-72
2021/12/29 12:35:46;;;;;;;3.90;0.50;;;22.40;41.60;;;;;;5170655;27;20046;-71
2021/12/29 12:44:00;;;;;;;4.35;0.47;;;22.40;41.70;;;;;;5129945;27;20408;-67
2021/12/29 12:49:26;;;;;;;2.70;0.63;;;22.40;41.60;;;;;;5129576;27;1846174;-67
2021/12/29 12:52:05;;;;;;;2.78;0.30;;;22.20;41.70;;;;;;5153471;27;20050;-67
2021/12/29 12:54:37;;;;;;;3.28;0.50;;;22.10;41.80;;;;;;5152854;27;20039;-67
2021/12/29 12:57:03;;;;;;;2.33;0.32;;;22.00;42.00;;;;;;5153109;27;20039;-66
2021/12/29 12:59:40;;;;;;;2.72;0.50;;;21.90;42.10;;;;;;5153242;27;20080;-66
2021/12/29 13:02:16;;;;;;;4.07;0.80;;;21.80;42.30;;;;;;5171660;27;20106;-66
2021/12/29 13:07:43;;;;;;;1.90;0.50;;;21.50;42.70;;;;;;5089493;28;20409;-66
2021/12/29 13:10:13;;;;;;;1.83;0.25;;;21.30;43.00;;;;;;5088034;28;20123;-66
2021/12/29 13:12:40;;;;;;;2.70;0.47;;;21.10;43.10;;;;;;5088264;28;20119;-67
2021/12/29 13:17:55;;;;;;;2.63;0.55;;;21.00;43.30;;;;;;5150899;27;20103;-66
2021/12/29 13:20:24;;;;;;;2.20;0.43;;;20.80;43.70;;;;;;5129199;28;20387;-66
2021/12/29 13:22:49;;;;;;;3.20;0.98;;;20.70;43.90;;;;;;5129310;28;20100;-66
2021/12/29 13:28:02;;;;;;;2.00;0.40;;;20.50;44.10;;;;;;5130423;27;20443;-67
2021/12/29 13:30:31;;;;;;;2.55;0.40;;;20.30;44.50;;;;;;5129088;27;20059;-66
2021/12/29 13:33:00;;;;;;;1.88;0.40;;;20.10;44.70;;;;;;5129107;27;20051;-66
2021/12/29 13:35:31;;;;;;;1.95;0.43;;;20.00;45.00;;;;;;5129060;28;20035;-66
2021/12/29 13:38:01;;;;;;;1.35;0.40;;;19.80;45.20;;;;;;5129153;28;20047;-66
2021/12/29 13:40:29;;;;;;;3.28;0.77;;;19.70;45.50;;;;;;5129106;28;20436;-66
2021/12/29 13:42:55;;;;;;;2.15;0.40;;;19.60;45.70;;;;;;5128676;28;20092;-66
2021/12/29 13:45:25;;;;;;;2.28;0.43;;;19.50;46.00;;;;;;5128403;28;20051;-66
2021/12/29 13:47:51;;;;;;;2.75;0.32;;;19.30;46.20;;;;;;5128998;28;20424;-66